createdAt,value
2022-12-31T08:48:20.369Z,92.43
2022-12-31T08:50:50.830Z,91.94
2022-12-31T08:53:22.495Z,91.84
2022-12-31T08:55:58.474Z,91.80
2022-12-31T08:58:46.898Z,91.89
2022-12-31T09:01:22.286Z,91.16
2022-12-31T09:04:02.331Z,91.12
2022-12-31T09:06:49.513Z,90.75
2022-12-31T09:09:41.594Z,90.93
2022-12-31T09:12:22.521Z,91.41
2022-12-31T09:15:03.505Z,90.68
2022-12-31T09:17:45.029Z,90.30
2022-12-31T09:20:25.073Z,90.31
2022-12-31T09:22:56.922Z,89.87
2022-12-31T09:25:27.670Z,89.82
2022-12-31T09:28:20.438Z,89.62
2022-12-31T09:31:02.112Z,89.72
2022-12-31T09:34:01.779Z,89.84
2022-12-31T09:36:37.250Z,89.59
2022-12-31T09:39:51.211Z,89.71
2022-12-31T09:45:55.312Z,88.98
2022-12-31T09:48:59.489Z,88.88
2022-12-31T09:53:19.426Z,88.88
2022-12-31T09:55:56.870Z,88.61
2022-12-31T09:58:52.522Z,88.41
2022-12-31T10:01:56.442Z,88.40
2022-12-31T10:04:30.399Z,88.48
2022-12-31T10:07:23.079Z,88.39
2022-12-31T10:10:01.061Z,88.50
2022-12-31T10:13:10.402Z,88.30
2022-12-31T10:15:44.726Z,87.95
2022-12-31T10:19:32.871Z,87.69
2022-12-31T10:22:36.940Z,87.65
2022-12-31T10:25:53.996Z,87.60
2022-12-31T10:28:55.558Z,87.68
2022-12-31T10:31:54.933Z,87.34
2022-12-31T10:34:45.224Z,86.98
2022-12-31T10:37:29.241Z,87.00
2022-12-31T10:40:14.729Z,86.50
2022-12-31T10:43:22.661Z,86.03
2022-12-31T10:46:32.943Z,85.24
2022-12-31T10:49:14.524Z,85.61
2022-12-31T10:52:13.835Z,85.89
2022-12-31T10:55:04.880Z,85.84
2022-12-31T10:57:51.546Z,85.67
2022-12-31T11:00:41.900Z,85.28
2022-12-31T11:04:37.953Z,84.64
2022-12-31T11:08:01.846Z,84.32
2022-12-31T11:11:08.174Z,84.07
2022-12-31T11:22:43.189Z,83.28
2022-12-31T11:25:21.323Z,83.17
2022-12-31T11:29:20.753Z,83.11
2022-12-31T11:32:27.213Z,83.41
2022-12-31T11:34:59.940Z,83.50
2022-12-31T11:37:45.890Z,83.58
2022-12-31T11:41:07.726Z,83.83
2022-12-31T11:44:22.020Z,84.28
2022-12-31T11:47:14.254Z,84.22
2022-12-31T11:50:03.656Z,83.92
2022-12-31T11:52:51.925Z,83.97
2022-12-31T11:55:40.020Z,83.93
2022-12-31T11:58:16.752Z,83.37
2022-12-31T12:00:55.664Z,83.19
2022-12-31T12:03:24.584Z,83.04
2022-12-31T12:05:53.402Z,83.34
2022-12-31T12:08:21.173Z,83.47
2022-12-31T12:10:53.203Z,83.50
2022-12-31T12:13:25.417Z,83.62
2022-12-31T12:15:59.620Z,83.40
2022-12-31T12:18:39.220Z,83.16
2022-12-31T12:21:11.805Z,83.00
2022-12-31T12:23:40.394Z,83.09
2022-12-31T12:26:25.111Z,83.44
2022-12-31T12:28:52.446Z,82.76
2022-12-31T12:31:23.068Z,83.24
2022-12-31T12:33:51.175Z,83.32
2022-12-31T12:36:20.295Z,83.39
2022-12-31T12:38:47.918Z,84.13
2022-12-31T12:41:25.972Z,85.28
2022-12-31T12:44:07.985Z,87.17
2022-12-31T12:46:48.057Z,87.94
2022-12-31T12:49:25.951Z,88.28
2022-12-31T12:52:11.781Z,88.75
2022-12-31T12:55:10.263Z,89.48
2022-12-31T12:57:46.075Z,89.84
2022-12-31T13:00:37.370Z,90.33
2022-12-31T13:03:59.986Z,90.61
2022-12-31T13:06:58.329Z,90.55
2022-12-31T13:09:47.966Z,90.97
2022-12-31T13:13:13.649Z,91.42
2022-12-31T13:15:50.916Z,91.55
2022-12-31T13:18:42.753Z,91.79
2022-12-31T13:21:32.167Z,91.76
2022-12-31T13:24:24.592Z,91.75
2022-12-31T13:26:59.710Z,91.56
2022-12-31T13:29:33.228Z,91.38
2022-12-31T13:32:07.701Z,91.37
2022-12-31T13:34:45.931Z,91.23
2022-12-31T13:37:25.778Z,91.07
2022-12-31T13:40:01.474Z,90.78
2022-12-31T13:54:20.046Z,88.91
2022-12-31T13:57:25.613Z,87.92
2022-12-31T14:13:34.937Z,87.21
2022-12-31T14:16:27.121Z,86.49
2022-12-31T14:19:10.004Z,86.76
2022-12-31T14:21:53.196Z,86.79
2022-12-31T14:24:34.319Z,87.01
2022-12-31T14:27:09.228Z,86.88
2022-12-31T14:29:59.516Z,87.00
2022-12-31T14:32:58.422Z,87.02
2022-12-31T14:36:08.261Z,87.14
2022-12-31T14:38:55.924Z,87.60
2022-12-31T14:42:01.056Z,87.55
2022-12-31T14:45:12.880Z,87.32
2022-12-31T14:47:48.705Z,87.42
2022-12-31T14:50:24.010Z,87.29
2022-12-31T14:53:08.301Z,86.99
2022-12-31T14:55:42.027Z,86.94
2022-12-31T14:58:36.731Z,86.80
2022-12-31T15:01:18.759Z,87.08
2022-12-31T15:03:46.492Z,87.14
2022-12-31T15:06:58.556Z,86.83
2022-12-31T15:09:40.539Z,86.79
2022-12-31T15:12:39.925Z,86.64
2022-12-31T15:15:16.765Z,86.30
2022-12-31T15:18:02.752Z,85.91
2022-12-31T15:24:02.307Z,85.68
2022-12-31T15:26:34.888Z,85.43
2022-12-31T15:29:06.625Z,84.85
2022-12-31T15:31:36.669Z,84.87
2022-12-31T15:34:29.569Z,84.87
2022-12-31T15:37:02.577Z,84.84
2022-12-31T15:39:40.238Z,84.57
2022-12-31T15:42:53.397Z,84.62
2022-12-31T15:45:55.941Z,84.49
2022-12-31T15:48:36.962Z,84.32
2022-12-31T15:51:09.587Z,84.34
2022-12-31T15:53:45.952Z,84.56
2022-12-31T15:56:24.737Z,84.22
2022-12-31T16:02:13.019Z,83.89
2022-12-31T16:05:04.354Z,83.99
2022-12-31T16:07:51.684Z,83.89
2022-12-31T16:10:41.847Z,83.92
2022-12-31T16:13:24.327Z,83.86
2022-12-31T16:16:05.068Z,83.93
2022-12-31T16:18:39.685Z,84.58
2022-12-31T16:21:38.541Z,84.29
2022-12-31T16:24:49.006Z,84.19
2022-12-31T16:27:41.584Z,83.97
2022-12-31T16:30:36.717Z,84.22
2022-12-31T16:33:17.860Z,83.89
2022-12-31T16:36:04.792Z,83.89
2022-12-31T16:38:41.000Z,84.06
2022-12-31T16:41:28.069Z,84.33
2022-12-31T16:44:32.821Z,83.98
2022-12-31T16:47:16.850Z,84.14
2022-12-31T16:50:04.722Z,84.16
2022-12-31T16:52:38.542Z,83.95
2022-12-31T16:55:17.275Z,84.06
2022-12-31T16:57:52.108Z,83.93
2022-12-31T17:00:27.834Z,83.72
2022-12-31T17:03:28.227Z,84.04
2022-12-31T17:06:15.012Z,84.01
2022-12-31T17:08:45.884Z,83.73
2022-12-31T17:11:42.306Z,83.68
2022-12-31T17:14:15.884Z,83.47
2022-12-31T17:17:01.688Z,83.23
2022-12-31T17:19:45.704Z,82.93
2022-12-31T17:22:32.982Z,82.63
2022-12-31T17:25:07.966Z,82.43
2022-12-31T17:27:38.898Z,82.45
2022-12-31T17:30:31.368Z,82.20
2022-12-31T17:33:24.023Z,81.92
2022-12-31T17:36:19.098Z,81.84
2022-12-31T17:39:49.569Z,82.10
2022-12-31T17:42:41.324Z,82.53
2022-12-31T17:45:22.176Z,82.60
2022-12-31T17:47:53.757Z,82.81
2022-12-31T17:50:24.890Z,83.04
2022-12-31T17:53:13.045Z,83.43
2022-12-31T17:55:46.673Z,83.44
2022-12-31T17:58:43.963Z,83.59
2022-12-31T18:01:17.370Z,83.78
2022-12-31T18:03:45.313Z,83.80
2022-12-31T18:06:20.107Z,84.23
2022-12-31T18:08:49.168Z,84.15
2022-12-31T18:11:23.113Z,84.34
2022-12-31T18:13:53.393Z,84.29
2022-12-31T18:16:26.610Z,84.34
2022-12-31T18:19:00.781Z,84.48
2022-12-31T18:21:36.988Z,84.36
2022-12-31T18:24:15.649Z,84.39
2022-12-31T18:26:44.854Z,84.55
2022-12-31T18:29:24.283Z,84.41
2022-12-31T18:32:01.564Z,84.22
2022-12-31T18:34:31.277Z,83.87
2022-12-31T18:37:00.359Z,83.63
2022-12-31T18:39:27.934Z,83.75
2022-12-31T18:41:58.522Z,84.05
2022-12-31T18:44:45.458Z,83.77
2022-12-31T18:47:22.901Z,83.56
2022-12-31T18:49:50.454Z,83.37
2022-12-31T18:52:21.363Z,83.09
2022-12-31T18:54:50.300Z,82.99
2022-12-31T18:57:20.474Z,82.80
2022-12-31T18:59:49.889Z,82.83
2022-12-31T19:02:23.276Z,82.61
2022-12-31T19:04:53.290Z,82.70
2022-12-31T19:07:26.688Z,82.97
2022-12-31T19:10:05.720Z,82.89
2022-12-31T19:12:48.395Z,82.73
2022-12-31T19:16:08.221Z,82.89
2022-12-31T19:18:40.623Z,82.78
2022-12-31T19:21:18.851Z,82.82
2022-12-31T19:23:53.079Z,82.70
2022-12-31T19:26:23.837Z,82.65
2022-12-31T19:28:52.953Z,82.75
2022-12-31T19:31:21.148Z,83.04
2022-12-31T19:33:51.920Z,82.87
2022-12-31T19:36:21.875Z,83.06
2022-12-31T19:38:51.729Z,83.26
2022-12-31T19:41:22.835Z,83.23
2022-12-31T19:43:52.793Z,83.21
2022-12-31T19:46:27.614Z,83.36
2022-12-31T19:48:55.561Z,83.35
2022-12-31T19:51:23.009Z,83.45
2022-12-31T19:53:53.697Z,83.53
2022-12-31T19:56:27.854Z,83.75
2022-12-31T19:59:02.708Z,83.95
2022-12-31T20:01:33.034Z,83.97
2022-12-31T20:04:02.703Z,83.94
2022-12-31T20:06:31.630Z,84.13
2022-12-31T20:08:59.813Z,84.29
2022-12-31T20:11:27.691Z,84.72
2022-12-31T20:13:55.530Z,84.80
2022-12-31T20:16:26.319Z,84.88
2022-12-31T20:18:54.134Z,85.04
2022-12-31T20:21:24.211Z,85.35
2022-12-31T20:23:54.444Z,85.61
2022-12-31T20:26:30.912Z,85.60
2022-12-31T20:28:59.779Z,85.69
2022-12-31T20:31:28.543Z,85.69
2022-12-31T20:33:59.330Z,86.04
2022-12-31T20:36:28.302Z,85.99
2022-12-31T20:38:59.188Z,86.17
2022-12-31T20:41:28.362Z,86.30
2022-12-31T20:44:02.873Z,86.47
2022-12-31T20:46:34.385Z,86.74
2022-12-31T20:49:04.534Z,86.67
2022-12-31T20:51:34.661Z,86.64
2022-12-31T20:54:04.926Z,86.76
2022-12-31T20:56:35.885Z,86.73
2022-12-31T20:59:06.854Z,87.15
2022-12-31T21:02:18.924Z,86.84
2022-12-31T21:04:25.183Z,86.90
2022-12-31T21:06:53.624Z,86.94
2022-12-31T21:09:25.593Z,87.13
2022-12-31T21:12:12.417Z,87.31
2022-12-31T21:14:45.003Z,87.60
2022-12-31T21:17:17.300Z,87.48
2022-12-31T21:19:49.094Z,87.22
2022-12-31T21:22:28.211Z,87.05
2022-12-31T21:25:03.139Z,87.36
2022-12-31T21:27:35.103Z,87.42
2022-12-31T21:30:21.566Z,87.27
2022-12-31T21:32:52.316Z,87.27
2022-12-31T21:38:15.577Z,86.53
2022-12-31T21:40:46.877Z,86.03
2022-12-31T21:43:17.006Z,85.63
2022-12-31T21:45:46.932Z,85.01
2022-12-31T21:48:26.310Z,85.14
2022-12-31T21:51:04.659Z,84.89
2022-12-31T21:53:36.923Z,84.64
2022-12-31T21:56:09.816Z,84.34
2022-12-31T21:58:42.092Z,84.43
2022-12-31T22:01:37.322Z,84.10
2022-12-31T22:04:07.932Z,83.88
2022-12-31T22:06:40.358Z,82.87
2022-12-31T22:09:07.737Z,82.83
2022-12-31T22:11:35.536Z,82.79
2022-12-31T22:14:04.109Z,82.97
2022-12-31T22:16:32.024Z,82.93
2022-12-31T22:18:59.410Z,82.92
2022-12-31T22:21:28.964Z,83.36
2022-12-31T22:23:58.958Z,83.41
2022-12-31T22:26:28.711Z,83.29
2022-12-31T22:28:59.430Z,83.43
2022-12-31T22:31:29.825Z,83.73
2022-12-31T22:33:58.481Z,83.57
2022-12-31T22:36:26.002Z,83.95
2022-12-31T22:38:58.588Z,84.33
2022-12-31T22:41:27.510Z,84.30
2022-12-31T22:44:03.059Z,84.48
2022-12-31T22:46:34.221Z,84.67
2022-12-31T22:49:05.265Z,84.67
2022-12-31T22:51:57.360Z,84.75
2022-12-31T22:54:21.112Z,85.12
2022-12-31T22:56:49.824Z,85.20
2022-12-31T22:59:18.988Z,85.42
2022-12-31T23:01:47.566Z,85.52
2022-12-31T23:04:23.820Z,85.84
2022-12-31T23:06:51.500Z,85.66
2022-12-31T23:09:38.374Z,85.66
2022-12-31T23:12:09.470Z,85.69
2022-12-31T23:14:57.976Z,85.78
2022-12-31T23:17:46.741Z,85.66
2022-12-31T23:20:39.992Z,85.86
2022-12-31T23:23:13.063Z,86.19
2022-12-31T23:25:46.696Z,86.61
2022-12-31T23:28:24.569Z,86.62
2022-12-31T23:30:54.198Z,86.55
2022-12-31T23:33:27.390Z,86.70
2022-12-31T23:36:05.907Z,86.60
2022-12-31T23:38:39.439Z,86.66
2022-12-31T23:41:36.689Z,86.56
2022-12-31T23:44:08.883Z,86.83
2022-12-31T23:46:38.005Z,87.02
2022-12-31T23:49:05.314Z,86.96
2022-12-31T23:51:33.094Z,86.84
2022-12-31T23:54:01.960Z,87.11
2022-12-31T23:56:33.140Z,87.18
2022-12-31T23:59:02.282Z,87.27
